John C. Munro Hamilton International Airport
CYHM : now visible

Airfield :











YOU CAN JOIN US ON...

 
LOGIN :

Register | Disclaimer

   EN    FR    IT 

 









Legend :    VFR   Marginal VFR   IFR   Intensive IFR   Very Intensive IFR
Visi :
Ceiling :
>= 8 km
>= 3000ft
5 to 8 km
1000 to 3000 ft
1500m to 5 km
500 to 1000 ft
800 to 1500m
200 to 500 ft
< 800m
< 200 ft
Symbols :   Thunderstorms  Fog  Heavy snow  Heavy precipitations  Wind > 20 kt






- Airport Elevation : 780 ft
- IATA code : YHM


CYHM - John C. Munro Hamilton International

CURRENT METAR :
  • 080700Z 17006KT 15SM FEW210 M04/M06 A3028 RMK CI1 CI TR SLP266

EXPIRED METARs :
  • 080600Z 16008KT 15SM FEW070 M04/M07 A3029 RMK AC1 SLP272
  • 080500Z 14007KT 15SM FEW030 FEW210 M04/M07 A3032 RMK SC1CI1 SC TR SLP281

TAF TAF CYHM
Valid from the 08 at 06:00 until the 09 at 06:00 UTC


080539Z 0806/0906 15006KT P6SM FEW220
FM080900 17007KT P6SM SCT070 BKN220
BECMG 0810/0812 19012KT
FM081500 19015G25KT P6SM BKN180
BECMG 0816/0818 21020G30KT
FM082200 22018G28KT P6SM BKN030 BKN150
BECMG 0823/0901 21012G22KT RMK NXT FCST BY 081200Z



MET'MAP, your aeronautical weather chart ! - Copyright ORBIFLY December 2007 - Disclaimer

ORBIFLY MET'MAP TEAM :

Programming & Development : Alexandra Zaïnal
Concept & original design : Baudouin d'Aumeries
Assistance for programming : Marc-Olivier Méhu
Technical & hardware support : Manuel Goepfert

Contact : metmap@orbifly.com




SOURCES & CREDITS :

   NOAA       Earth
Advisory